Flight Track Log - Related Links

Times and Time Zones

All times are in EDT time to prevent confusion due to time zone crossing. See the ANO418 flight status page for this flight to view local times or setup timezone preferences in your user account.

Time Position Orientation Groundspeed Altitude Reporting Facility
EDT Latitude Longitude Course Direction KTS MPH feet Rate Location/Type
Fri 08:03:54 AM -12.4879 136.7695 192° South 16,000  Level Aus ATC (Calculated)
Fri 08:03:59 AM -12.5437 136.7578 360° North 16,000  Level Aus ATC (Calculated)
Fri 08:04:47 AM -12.5437 136.7578 192° South 16,000  Level Aus ATC (Calculated)
Fri 08:06:00 AM -12.6156 136.7426 192° South  Level FlightAware Approximate
Fri 08:07:00 AM -12.6747 136.7302 192° South  Level FlightAware Approximate
Fri 08:07:47 AM -12.7666 136.7108 80° East 16,000  Level Aus ATC (Calculated)
Fri 08:07:47 AM -12.7666 136.7108 192° South 16,000  Level Aus ATC (Calculated)
Fri 08:09:00 AM -12.8385 136.6956 192° South  Level FlightAware Approximate
Fri 08:10:00 AM -12.8976 136.6831 192° South  Level FlightAware Approximate
Fri 08:11:00 AM -12.9566 136.6707 192° South  Level FlightAware Approximate
Fri 08:12:00 AM -13.0157 136.6582 192° South  Level FlightAware Approximate
Fri 08:13:00 AM -13.0748 136.6457 192° South  Level FlightAware Approximate
Fri 08:14:00 AM -13.1339 136.6332 192° South  Level FlightAware Approximate
Fri 08:15:00 AM -13.1930 136.6206 192° South  Level FlightAware Approximate
Fri 08:16:00 AM -13.1339 136.6332 12° North  Level FlightAware Approximate
Fri 08:16:00 AM -13.3102 136.5959 192° South 300  Level Aus ATC (Calculated)
Fri 08:16:50 AM -13.3614 136.5851 360° North 300  Level Aus ATC (Calculated)
Fri 08:17:04 AM -13.3614 136.5851 12° North 300  Level Aus ATC (Calculated)
Fri 08:19:00 AM -13.2472 136.6092 12° North  Level FlightAware Approximate
Fri 08:20:00 AM -13.1858 136.6222 192° South  Level FlightAware Approximate
Fri 08:21:00 AM -13.2449 136.6097 192° South  Level FlightAware Approximate
Fri 08:22:00 AM -13.3040 136.5972 192° South  Level FlightAware Approximate
Fri 08:23:00 AM -13.3630 136.5847 192° South  Level FlightAware Approximate
Fri 08:24:00 AM -13.4221 136.5723 192° South  Level FlightAware Approximate
Fri 08:25:00 AM -13.4812 136.5598 192° South  Level FlightAware Approximate
Fri 08:26:00 AM -13.5403 136.5472 192° South  Level FlightAware Approximate
Fri 08:27:00 AM -13.5994 136.5347 192° South  Level FlightAware Approximate
Fri 08:28:00 AM -13.6585 136.5222 192° South  Level FlightAware Approximate
Fri 08:29:00 AM -13.7176 136.5097 192° South  Level FlightAware Approximate
Fri 08:30:00 AM -13.7766 136.4972 192° South  Level FlightAware Approximate
Fri 08:31:00 AM -13.8357 136.4846 192° South  Level FlightAware Approximate
Fri 08:32:00 AM -13.8948 136.4721 192° South  Level FlightAware Approximate
Fri 08:33:00 AM -13.9539 136.4595 192° South  Level FlightAware Approximate
Fri 08:34:00 AM -13.9754 136.4550 192° South  Level FlightAware Approximate

Login

Don't have an account? Register now (free) for customized features, flight alerts, and more!